Time;durP1;ratioP1;P1;durP2;ratioP2;P2;SDS_P1;SDS_P2;PMS_P1;PMS_P2;Temp;Humidity;BMP_temperature;BMP_pressure;BME280_temperature;BME280_humidity;BME280_pressure;Samples;Min_cycle;Max_cycle;Signal;HPM_P1;HPM_P2
2023/09/02 00:01:21;;;;;;;3.72;1.85;;;16.90;99.90;;;;;;5050177;28;20205;-65
2023/09/02 00:03:47;;;;;;;3.95;1.77;;;16.90;99.90;;;;;;5051156;28;20236;-65
2023/09/02 00:06:14;;;;;;;3.03;2.10;;;16.80;99.90;;;;;;5051031;28;20210;-66
2023/09/02 00:08:42;;;;;;;4.68;2.08;;;16.80;99.90;;;;;;5051331;28;20209;-65
2023/09/02 00:11:08;;;;;;;6.18;1.90;;;16.80;99.90;;;;;;5051115;28;20343;-65
2023/09/02 00:13:36;;;;;;;2.95;1.88;;;16.70;99.90;;;;;;5051360;28;20212;-65
2023/09/02 00:16:04;;;;;;;4.60;1.90;;;16.70;99.90;;;;;;5050797;28;20205;-65
2023/09/02 00:18:31;;;;;;;8.32;2.15;;;16.60;99.90;;;;;;5050978;28;20229;-65
2023/09/02 00:20:57;;;;;;;4.43;2.20;;;16.60;99.90;;;;;;5051056;28;20216;-65
2023/09/02 00:23:24;;;;;;;5.50;1.90;;;16.60;99.90;;;;;;5051242;28;20216;-65
2023/09/02 00:25:51;;;;;;;3.63;3.00;;;16.50;99.90;;;;;;5051044;28;20221;-65
2023/09/02 00:28:17;;;;;;;2.88;2.20;;;16.60;99.90;;;;;;5050849;28;20206;-65
2023/09/02 00:30:44;;;;;;;7.03;2.20;;;16.60;99.90;;;;;;5050921;28;20229;-65
2023/09/02 00:33:12;;;;;;;3.25;2.05;;;16.50;99.90;;;;;;5050915;28;20206;-65
2023/09/02 00:35:39;;;;;;;4.35;2.55;;;16.60;99.90;;;;;;5050891;28;20234;-65
2023/09/02 00:38:06;;;;;;;3.35;2.45;;;16.60;99.90;;;;;;5050826;28;20206;-65
2023/09/02 00:40:33;;;;;;;6.43;2.65;;;16.60;99.90;;;;;;5050747;28;20201;-65
2023/09/02 00:43:01;;;;;;;3.92;2.42;;;16.60;99.90;;;;;;5050663;28;20240;-65
2023/09/02 00:45:28;;;;;;;4.00;2.40;;;16.60;99.90;;;;;;5050233;28;20712;-65
2023/09/02 00:47:56;;;;;;;2.70;2.28;;;16.60;99.90;;;;;;5050547;28;20201;-65
2023/09/02 00:50:24;;;;;;;6.28;2.47;;;16.50;99.90;;;;;;5050792;28;20209;-65
2023/09/02 00:52:51;;;;;;;3.20;2.17;;;16.50;99.90;;;;;;5050658;28;20233;-65
2023/09/02 00:55:20;;;;;;;3.67;2.15;;;16.50;99.90;;;;;;5050365;28;20811;-65
2023/09/02 00:57:47;;;;;;;2.95;1.92;;;16.60;99.90;;;;;;5049886;28;20673;-64
2023/09/02 01:00:14;;;;;;;4.70;2.20;;;16.50;99.90;;;;;;5051024;28;20686;-64
2023/09/02 01:02:43;;;;;;;6.53;2.10;;;16.50;99.90;;;;;;5050490;28;20546;-64
2023/09/02 01:05:11;;;;;;;3.85;1.90;;;16.30;99.90;;;;;;5050363;28;20708;-64
2023/09/02 01:07:40;;;;;;;3.67;1.88;;;16.20;99.90;;;;;;5050264;28;20205;-64
2023/09/02 01:10:08;;;;;;;2.40;1.90;;;16.20;99.90;;;;;;5050342;28;20527;-64
2023/09/02 01:12:34;;;;;;;4.80;2.10;;;16.20;99.90;;;;;;5053539;28;20225;-64
2023/09/02 01:15:01;;;;;;;2.28;1.75;;;16.30;99.90;;;;;;5054523;28;20726;-64
2023/09/02 01:17:28;;;;;;;3.53;2.27;;;16.30;99.90;;;;;;5054288;28;20205;-64
2023/09/02 01:19:56;;;;;;;3.53;2.15;;;16.30;99.90;;;;;;5054513;28;20251;-64
2023/09/02 01:22:39;;;;;;;2.33;2.13;;;16.30;99.90;;;;;;5054311;28;20206;-64
2023/09/02 01:25:23;;;;;;;3.22;2.22;;;16.30;99.90;;;;;;5054432;28;20648;-64
2023/09/02 01:27:55;;;;;;;5.97;2.28;;;16.30;99.90;;;;;;5054093;28;20220;-63
2023/09/02 01:30:26;;;;;;;5.47;1.83;;;16.30;99.90;;;;;;5054401;28;20205;-64
2023/09/02 01:32:54;;;;;;;3.67;1.80;;;16.30;99.90;;;;;;5054444;28;20325;-64
2023/09/02 01:35:27;;;;;;;2.95;2.10;;;16.30;99.90;;;;;;5054163;28;20329;-64
2023/09/02 01:37:57;;;;;;;2.65;2.05;;;16.20;99.90;;;;;;5054178;28;20209;-64
2023/09/02 01:40:25;;;;;;;4.00;2.28;;;16.20;99.90;;;;;;5054391;28;20206;-64
2023/09/02 01:42:55;;;;;;;2.78;2.08;;;16.20;99.90;;;;;;5054256;28;20221;-64
2023/09/02 01:45:23;;;;;;;2.90;2.20;;;16.20;99.90;;;;;;5053939;28;20233;-64
2023/09/02 01:47:51;;;;;;;2.97;2.03;;;16.20;99.90;;;;;;5053794;28;20205;-63
2023/09/02 01:50:22;;;;;;;5.10;2.10;;;16.20;99.90;;;;;;5054082;28;20205;-63
2023/09/02 01:52:49;;;;;;;2.97;2.08;;;16.20;99.90;;;;;;5053749;28;20225;-63
2023/09/02 01:55:16;;;;;;;8.40;2.53;;;16.10;99.90;;;;;;5054283;28;20240;-64
2023/09/02 01:57:43;;;;;;;5.25;2.72;;;16.10;99.90;;;;;;5053453;28;20228;-64
2023/09/02 02:00:13;;;;;;;4.57;2.55;;;16.10;99.90;;;;;;5053629;28;20676;-64
2023/09/02 02:02:41;;;;;;;6.03;2.40;;;16.10;99.90;;;;;;5053776;28;20205;-64
2023/09/02 02:05:13;;;;;;;3.22;2.30;;;16.10;99.90;;;;;;5053738;28;20287;-64
2023/09/02 02:07:43;;;;;;;5.95;2.30;;;16.10;99.90;;;;;;5053403;28;20210;-64
2023/09/02 02:10:13;;;;;;;2.88;1.90;;;15.90;99.90;;;;;;5053817;28;20213;-64
2023/09/02 02:12:41;;;;;;;4.05;1.92;;;15.90;99.90;;;;;;5053335;28;20229;-68
2023/09/02 02:15:11;;;;;;;3.43;2.03;;;15.90;99.90;;;;;;5053616;28;20233;-65
2023/09/02 02:17:39;;;;;;;7.93;2.00;;;16.00;99.90;;;;;;5053652;28;20213;-65
2023/09/02 02:20:09;;;;;;;3.58;1.88;;;16.00;99.90;;;;;;5053648;28;20201;-64
2023/09/02 02:22:35;;;;;;;4.30;2.40;;;16.00;99.90;;;;;;5052567;28;20209;-64
2023/09/02 02:25:02;;;;;;;4.53;2.40;;;16.00;99.90;;;;;;5052966;28;20233;-65
2023/09/02 02:27:29;;;;;;;3.97;2.15;;;16.10;99.90;;;;;;5053245;28;20216;-65
2023/09/02 02:29:57;;;;;;;2.67;2.17;;;16.10;99.90;;;;;;5053415;28;20209;-65
2023/09/02 02:32:24;;;;;;;5.88;2.30;;;16.00;99.90;;;;;;5053009;28;20732;-64
2023/09/02 02:34:53;;;;;;;4.25;2.17;;;16.10;99.90;;;;;;5053043;28;20304;-65
2023/09/02 02:37:20;;;;;;;3.25;2.00;;;16.10;99.90;;;;;;5053008;28;20296;-65
2023/09/02 02:39:47;;;;;;;3.47;1.95;;;16.00;99.90;;;;;;5053073;28;20577;-65
2023/09/02 02:42:14;;;;;;;6.38;1.92;;;15.90;99.90;;;;;;5053138;28;20209;-64
2023/09/02 02:44:41;;;;;;;3.03;1.93;;;16.00;99.90;;;;;;5052971;28;20231;-65
2023/09/02 02:47:08;;;;;;;3.40;2.03;;;16.00;99.90;;;;;;5052956;28;20685;-65
2023/09/02 02:49:35;;;;;;;2.73;2.07;;;16.00;99.90;;;;;;5052830;28;20213;-65
2023/09/02 02:52:03;;;;;;;4.50;2.27;;;16.00;99.90;;;;;;5052867;28;20229;-65
2023/09/02 02:54:30;;;;;;;4.13;2.58;;;16.00;99.90;;;;;;5052708;28;20249;-65
2023/09/02 02:56:57;;;;;;;4.05;1.83;;;16.00;99.90;;;;;;5052600;28;20299;-64
2023/09/02 02:59:24;;;;;;;5.30;2.60;;;16.00;99.90;;;;;;5052565;28;20547;-65
2023/09/02 03:01:51;;;;;;;4.55;2.25;;;16.00;99.90;;;;;;5052637;28;20204;-65
2023/09/02 03:04:18;;;;;;;4.95;1.90;;;16.00;99.90;;;;;;5052293;28;20717;-65
2023/09/02 03:06:44;;;;;;;2.80;2.20;;;15.90;99.90;;;;;;5052033;28;20295;-65
2023/09/02 03:09:12;;;;;;;4.30;2.28;;;15.90;99.90;;;;;;5052235;28;20209;-64
2023/09/02 03:11:39;;;;;;;6.47;2.00;;;15.90;99.90;;;;;;5052416;28;20221;-64
2023/09/02 03:14:06;;;;;;;3.08;1.95;;;15.90;99.90;;;;;;5052360;28;20233;-64
2023/09/02 03:16:32;;;;;;;7.10;2.10;;;15.90;99.90;;;;;;5051953;28;20638;-64
2023/09/02 03:18:59;;;;;;;6.47;2.35;;;16.00;99.90;;;;;;5052231;28;20209;-65
2023/09/02 03:21:26;;;;;;;2.83;2.28;;;16.00;99.90;;;;;;5052167;28;20205;-64
2023/09/02 03:23:52;;;;;;;3.35;2.53;;;16.10;99.90;;;;;;5052297;28;20236;-64
2023/09/02 03:26:24;;;;;;;4.65;2.85;;;16.20;99.90;;;;;;5052269;28;20205;-64
2023/09/02 03:28:50;;;;;;;7.28;2.88;;;16.30;99.90;;;;;;5052291;28;20206;-64
2023/09/02 03:31:17;;;;;;;4.97;2.72;;;16.40;99.90;;;;;;5052269;28;20309;-64
2023/09/02 03:33:44;;;;;;;3.55;3.20;;;16.40;99.90;;;;;;5051767;28;20229;-64
2023/09/02 03:36:16;;;;;;;3.70;3.30;;;16.50;99.90;;;;;;5051879;28;20224;-64
2023/09/02 03:38:43;;;;;;;4.32;3.47;;;16.50;99.90;;;;;;5051983;28;20271;-64
2023/09/02 03:41:17;;;;;;;4.40;4.00;;;16.50;99.90;;;;;;5052005;28;20209;-64
2023/09/02 03:43:45;;;;;;;7.55;3.78;;;16.50;99.90;;;;;;5051680;28;20680;-64
2023/09/02 03:46:12;;;;;;;6.10;3.65;;;16.50;99.90;;;;;;5051312;28;20642;-64
2023/09/02 03:48:39;;;;;;;6.78;3.88;;;16.50;99.90;;;;;;5051661;28;20205;-64
2023/09/02 03:51:11;;;;;;;3.83;3.50;;;16.50;99.90;;;;;;5051923;28;20213;-64
2023/09/02 03:53:38;;;;;;;5.72;3.50;;;16.40;99.90;;;;;;5051250;28;20228;-67
2023/09/02 03:56:05;;;;;;;5.03;4.00;;;16.30;99.90;;;;;;5051405;28;20205;-65
2023/09/02 03:58:32;;;;;;;8.52;4.20;;;16.30;99.90;;;;;;5051512;28;20696;-64
2023/09/02 04:01:00;;;;;;;5.82;4.32;;;16.20;99.90;;;;;;5051352;28;20540;-64
2023/09/02 04:03:27;;;;;;;9.40;3.70;;;16.10;99.90;;;;;;5051723;28;20205;-64
2023/09/02 04:05:54;;;;;;;4.87;3.00;;;16.10;99.90;;;;;;5051479;28;20209;-64
2023/09/02 04:08:22;;;;;;;4.57;3.45;;;16.00;99.90;;;;;;5051408;28;20217;-65
2023/09/02 04:10:52;;;;;;;5.47;3.03;;;15.90;99.90;;;;;;5051171;28;20225;-65
2023/09/02 04:13:19;;;;;;;4.00;2.72;;;15.90;99.90;;;;;;5051220;28;20261;-64
2023/09/02 04:15:46;;;;;;;5.30;2.70;;;15.90;99.90;;;;;;5050667;28;20221;-64
2023/09/02 04:18:14;;;;;;;5.00;2.70;;;15.80;99.90;;;;;;5051390;28;20212;-64
2023/09/02 04:20:41;;;;;;;4.65;2.45;;;15.70;99.90;;;;;;5051175;28;20239;-64
2023/09/02 04:23:07;;;;;;;3.33;2.75;;;15.80;99.90;;;;;;5051152;28;20670;-64
2023/09/02 04:25:42;;;;;;;8.07;3.53;;;15.80;99.90;;;;;;5051024;28;20234;-64
2023/09/02 04:28:09;;;;;;;5.53;3.45;;;15.80;99.90;;;;;;5050798;28;20609;-65
2023/09/02 04:30:36;;;;;;;6.35;3.33;;;15.80;99.90;;;;;;5051134;28;20235;-65
2023/09/02 04:33:03;;;;;;;3.72;2.80;;;15.70;99.90;;;;;;5051222;28;20238;-64
2023/09/02 04:35:36;;;;;;;3.33;2.10;;;15.70;99.90;;;;;;5050926;28;20232;-64
2023/09/02 04:38:03;;;;;;;4.63;2.72;;;15.70;99.90;;;;;;5051085;28;20233;-64
2023/09/02 04:40:30;;;;;;;4.13;2.30;;;15.60;99.90;;;;;;5050964;28;20205;-66
2023/09/02 04:42:57;;;;;;;5.03;3.08;;;15.70;99.90;;;;;;5050793;28;20673;-65
2023/09/02 04:45:23;;;;;;;9.57;3.40;;;15.70;99.90;;;;;;5050869;28;20236;-65
2023/09/02 04:47:50;;;;;;;6.10;3.10;;;15.60;99.90;;;;;;5050400;28;20236;-65
2023/09/02 04:50:17;;;;;;;3.80;3.25;;;15.70;99.90;;;;;;5050685;28;20680;-64
2023/09/02 04:52:45;;;;;;;4.65;3.65;;;15.70;99.90;;;;;;5050767;28;20231;-65
2023/09/02 04:55:12;;;;;;;10.07;3.88;;;15.70;99.90;;;;;;5050505;28;20610;-65
2023/09/02 04:57:39;;;;;;;5.27;3.23;;;15.70;99.90;;;;;;5050738;28;20216;-64
2023/09/02 05:00:08;;;;;;;7.95;3.53;;;15.60;99.90;;;;;;5051167;28;20265;-64
2023/09/02 05:02:34;;;;;;;9.33;5.60;;;15.60;99.90;;;;;;5051035;28;20201;-64
2023/09/02 05:05:01;;;;;;;5.82;3.40;;;15.60;99.90;;;;;;5050744;28;20241;-64
2023/09/02 05:07:28;;;;;;;6.38;4.13;;;15.70;99.90;;;;;;5050407;28;20212;-64
2023/09/02 05:09:56;;;;;;;5.95;3.45;;;15.70;99.90;;;;;;5050769;28;20221;-63
2023/09/02 05:12:22;;;;;;;3.58;3.08;;;15.70;99.90;;;;;;5050472;28;20222;-63
2023/09/02 05:14:49;;;;;;;7.47;3.63;;;15.70;99.90;;;;;;5050718;28;20596;-63
2023/09/02 05:17:16;;;;;;;4.40;3.30;;;15.80;99.90;;;;;;5050435;28;20360;-63
2023/09/02 05:19:43;;;;;;;5.28;3.10;;;15.80;99.90;;;;;;5050645;28;20205;-63
2023/09/02 05:22:10;;;;;;;3.83;2.78;;;15.80;99.90;;;;;;5050416;28;20557;-63
2023/09/02 05:24:37;;;;;;;4.63;3.58;;;15.90;99.90;;;;;;5050799;28;20225;-64
2023/09/02 05:27:06;;;;;;;3.75;2.92;;;15.90;99.90;;;;;;5050529;28;20201;-64
2023/09/02 05:29:33;;;;;;;7.38;3.30;;;16.00;99.90;;;;;;5050558;28;20206;-64
2023/09/02 05:31:59;;;;;;;4.28;2.90;;;16.10;99.90;;;;;;5050308;28;20236;-63
2023/09/02 05:34:26;;;;;;;7.53;3.05;;;16.20;99.90;;;;;;5050323;28;20229;-63
2023/09/02 05:36:53;;;;;;;6.23;3.03;;;16.30;99.90;;;;;;5050446;28;20252;-63
2023/09/02 05:39:18;;;;;;;3.92;2.90;;;16.50;99.90;;;;;;5050570;28;20228;-64
2023/09/02 05:41:45;;;;;;;5.85;2.65;;;16.70;99.90;;;;;;5050455;28;20662;-64
2023/09/02 05:44:14;;;;;;;6.10;3.45;;;17.70;99.90;;;;;;5050344;28;20306;-64
2023/09/02 05:46:40;;;;;;;5.03;2.83;;;19.20;99.90;;;;;;5050246;28;20217;-63
2023/09/02 05:49:07;;;;;;;3.20;2.67;;;20.70;99.90;;;;;;5050472;28;20212;-65
2023/09/02 05:51:34;;;;;;;5.35;2.60;;;21.70;99.90;;;;;;5050402;28;20213;-65
2023/09/02 05:54:00;;;;;;;4.60;2.42;;;22.70;99.90;;;;;;5050220;28;20646;-63
2023/09/02 05:56:27;;;;;;;4.00;2.40;;;23.50;99.90;;;;;;5050212;28;20213;-65
2023/09/02 05:58:54;;;;;;;4.88;2.28;;;24.30;99.90;;;;;;5053648;28;20216;-65
2023/09/02 06:01:22;;;;;;;5.03;2.00;;;25.10;99.90;;;;;;5053773;28;20220;-65
2023/09/02 06:03:48;;;;;;;7.00;2.58;;;25.70;99.90;;;;;;5053898;28;20233;-65
2023/09/02 06:06:15;;;;;;;4.10;2.33;;;26.20;99.90;;;;;;5053699;28;20202;-65
2023/09/02 06:08:42;;;;;;;5.47;2.03;;;26.60;99.90;;;;;;5053875;28;20213;-65
2023/09/02 06:11:09;;;;;;;2.85;1.80;;;26.80;99.90;;;;;;5053892;28;20210;-65
2023/09/02 06:13:36;;;;;;;5.03;2.40;;;27.50;99.90;;;;;;5053517;28;20225;-65
2023/09/02 06:16:04;;;;;;;3.58;2.25;;;28.30;99.90;;;;;;5053015;28;20653;-63
2023/09/02 06:18:34;;;;;;;4.70;2.35;;;29.10;99.90;;;;;;5053388;28;20213;-63
2023/09/02 06:21:08;;;;;;;2.97;2.10;;;29.60;99.90;;;;;;5053847;28;20590;-64
2023/09/02 06:23:35;;;;;;;3.30;2.22;;;29.90;99.90;;;;;;5053605;28;20197;-65
2023/09/02 06:26:02;;;;;;;3.25;2.03;;;30.40;99.90;;;;;;5053121;28;20277;-64
2023/09/02 06:28:29;;;;;;;3.10;2.15;;;30.70;99.90;;;;;;5053281;28;20215;-65
2023/09/02 06:30:56;;;;;;;3.42;1.67;;;31.10;99.90;;;;;;5053201;28;20529;-64
2023/09/02 06:33:24;;;;;;;2.53;1.30;;;31.60;99.90;;;;;;5053192;28;20705;-64
2023/09/02 06:35:52;;;;;;;2.20;1.50;;;32.20;99.90;;;;;;5053148;28;20236;-65
2023/09/02 06:38:19;;;;;;;3.08;1.33;;;33.00;99.90;;;;;;5053387;28;20205;-65
2023/09/02 06:40:46;;;;;;;1.83;1.58;;;33.70;99.90;;;;;;5053181;28;20216;-64
2023/09/02 06:43:12;;;;;;;1.67;1.58;;;34.40;98.30;;;;;;5053026;28;20683;-66
2023/09/02 06:45:39;;;;;;;2.00;1.42;;;34.80;96.70;;;;;;5052804;28;20236;-64
2023/09/02 06:48:06;;;;;;;2.90;1.40;;;35.00;95.40;;;;;;5052947;28;20557;-64
2023/09/02 06:50:33;;;;;;;2.83;1.30;;;34.70;94.70;;;;;;5053254;28;20330;-64
2023/09/02 06:53:01;;;;;;;2.88;1.67;;;33.70;95.60;;;;;;5053075;28;20229;-65
2023/09/02 06:55:28;;;;;;;2.30;1.25;;;32.40;96.90;;;;;;5053168;28;20906;-64
2023/09/02 06:57:55;;;;;;;1.80;1.30;;;30.90;99.00;;;;;;5052991;28;20206;-64
2023/09/02 07:00:21;;;;;;;2.60;1.40;;;29.40;99.90;;;;;;5052819;28;20205;-65
2023/09/02 07:02:48;;;;;;;3.70;1.60;;;28.40;99.90;;;;;;5052994;28;20213;-65
2023/09/02 07:05:15;;;;;;;2.53;1.77;;;28.00;99.90;;;;;;5052893;28;20229;-64
2023/09/02 07:07:41;;;;;;;2.20;1.27;;;28.30;99.90;;;;;;5052787;28;20206;-65
2023/09/02 07:10:10;;;;;;;2.83;1.40;;;29.50;99.90;;;;;;5052419;28;20210;-65
2023/09/02 07:12:37;;;;;;;3.95;1.90;;;30.80;99.90;;;;;;5052673;28;20202;-65
2023/09/02 07:15:05;;;;;;;4.47;1.65;;;31.80;99.90;;;;;;5052728;28;20236;-65
2023/09/02 07:17:31;;;;;;;3.33;1.67;;;32.40;99.10;;;;;;5052690;28;20217;-65
2023/09/02 07:19:58;;;;;;;2.33;1.45;;;33.10;97.90;;;;;;5052323;28;20644;-65
2023/09/02 07:22:25;;;;;;;1.75;1.48;;;34.00;96.50;;;;;;5052501;28;20210;-65
2023/09/02 07:24:52;;;;;;;2.00;1.30;;;34.80;94.40;;;;;;5052458;28;20669;-65
2023/09/02 07:27:20;;;;;;;2.10;1.63;;;35.50;92.50;;;;;;5052035;28;20208;-65
2023/09/02 07:29:46;;;;;;;1.92;1.50;;;36.20;90.60;;;;;;5052063;28;20304;-65
2023/09/02 07:32:13;;;;;;;1.90;1.17;;;36.30;90.30;;;;;;5052476;28;20213;-64
2023/09/02 07:34:41;;;;;;;3.88;1.55;;;36.40;88.30;;;;;;5052594;28;20233;-65
2023/09/02 07:37:08;;;;;;;3.65;1.60;;;36.30;88.70;;;;;;5051940;28;20670;-65
2023/09/02 07:39:34;;;;;;;2.00;1.50;;;36.60;87.50;;;;;;5052594;28;20638;-65
2023/09/02 07:42:01;;;;;;;2.08;1.52;;;37.00;85.00;;;;;;5052045;28;20642;-65
2023/09/02 07:44:29;;;;;;;2.00;1.60;;;37.00;83.80;;;;;;5052387;28;20218;-64
2023/09/02 07:46:56;;;;;;;2.58;1.60;;;36.70;83.30;;;;;;5051661;28;20213;-64
2023/09/02 07:49:23;;;;;;;4.03;1.50;;;36.60;84.40;;;;;;5052055;28;20209;-66
2023/09/02 07:51:49;;;;;;;2.60;1.30;;;36.60;82.80;;;;;;5052047;28;20259;-66
2023/09/02 07:54:16;;;;;;;2.05;1.35;;;36.80;82.20;;;;;;5074910;22;20233;-63
2023/09/02 07:56:43;;;;;;;2.72;1.45;;;37.20;81.50;;;;;;5061617;28;20218;-63
2023/09/02 07:59:09;;;;;;;3.38;1.45;;;37.40;79.70;;;;;;5072556;28;20208;-63
2023/09/02 08:01:37;;;;;;;3.72;1.42;;;37.60;79.60;;;;;;5072616;28;20212;-63
2023/09/02 08:04:05;;;;;;;3.03;1.60;;;37.70;78.00;;;;;;5071827;28;20206;-63
2023/09/02 08:06:32;;;;;;;3.13;1.60;;;37.40;78.70;;;;;;5071517;28;20201;-63
2023/09/02 08:08:58;;;;;;;1.77;1.15;;;37.40;78.20;;;;;;5071695;28;20212;-64
2023/09/02 08:11:25;;;;;;;2.25;1.27;;;37.30;78.10;;;;;;5072155;28;20208;-63
2023/09/02 08:13:52;;;;;;;2.55;1.67;;;36.90;78.20;;;;;;5071728;28;20301;-64
2023/09/02 08:16:18;;;;;;;2.42;1.45;;;36.00;79.50;;;;;;5072163;28;20201;-63
2023/09/02 08:18:46;;;;;;;2.78;1.40;;;34.60;82.80;;;;;;5072160;28;20219;-63
2023/09/02 08:21:13;;;;;;;3.35;1.65;;;32.80;87.60;;;;;;5071424;28;20219;-64
2023/09/02 08:23:40;;;;;;;2.97;2.17;;;31.40;91.30;;;;;;5072496;28;20219;-64
2023/09/02 08:26:10;;;;;;;2.95;1.55;;;30.40;93.40;;;;;;5072459;28;20225;-64
2023/09/02 08:28:37;;;;;;;1.42;1.17;;;29.70;94.60;;;;;;5072267;28;20209;-64
2023/09/02 08:31:03;;;;;;;3.47;1.58;;;29.10;96.00;;;;;;5072667;28;20213;-64
2023/09/02 08:33:30;;;;;;;2.30;1.50;;;28.30;97.90;;;;;;5072029;28;20233;-64
2023/09/02 08:35:58;;;;;;;1.92;1.40;;;28.00;99.20;;;;;;5071435;28;20232;-64
2023/09/02 08:38:25;;;;;;;1.90;1.42;;;27.70;99.90;;;;;;5072200;28;20217;-62
2023/09/02 08:40:53;;;;;;;1.50;1.38;;;27.60;99.90;;;;;;5071894;28;20201;-63
2023/09/02 08:43:21;;;;;;;1.70;1.23;;;27.40;99.90;;;;;;5071527;28;20660;-63
2023/09/02 08:45:52;;;;;;;2.92;1.65;;;27.30;99.90;;;;;;5071359;28;20583;-62
2023/09/02 08:48:25;;;;;;;2.35;1.70;;;27.30;99.90;;;;;;5071915;28;20193;-62
2023/09/02 08:50:52;;;;;;;1.98;1.58;;;27.40;99.90;;;;;;5071956;28;20193;-64
2023/09/02 08:53:21;;;;;;;1.83;1.30;;;27.40;99.90;;;;;;5072067;28;20205;-64
2023/09/02 08:55:49;;;;;;;3.90;1.50;;;27.40;99.90;;;;;;5071400;28;20705;-63
2023/09/02 08:58:16;;;;;;;2.05;1.20;;;27.30;99.90;;;;;;5071669;28;20683;-63
2023/09/02 09:00:43;;;;;;;2.47;1.63;;;27.30;99.90;;;;;;5071725;28;20213;-65
2023/09/02 09:03:11;;;;;;;2.58;1.70;;;27.20;99.90;;;;;;5071644;28;20205;-63
2023/09/02 09:05:40;;;;;;;2.40;1.70;;;27.10;99.90;;;;;;5071136;28;20711;-62
2023/09/02 09:08:07;;;;;;;1.80;1.40;;;27.00;99.90;;;;;;5071714;28;20547;-63
2023/09/02 09:10:36;;;;;;;1.88;1.40;;;27.00;99.90;;;;;;5071934;28;20205;-63
2023/09/02 09:13:05;;;;;;;2.60;1.50;;;26.90;99.90;;;;;;5071593;28;20668;-62
2023/09/02 09:15:34;;;;;;;4.03;1.45;;;26.80;99.90;;;;;;5071335;28;20225;-62
2023/09/02 09:18:01;;;;;;;1.48;1.30;;;26.80;99.90;;;;;;5071407;28;20223;-62
2023/09/02 09:20:28;;;;;;;1.25;1.15;;;26.70;99.90;;;;;;5071466;28;20212;-62
2023/09/02 09:22:54;;;;;;;1.98;1.33;;;26.60;99.90;;;;;;5071373;28;20205;-63
2023/09/02 09:25:21;;;;;;;2.78;1.45;;;26.50;99.90;;;;;;5071264;28;20225;-63
2023/09/02 09:27:50;;;;;;;2.75;1.70;;;26.40;99.90;;;;;;5070949;28;20818;-62
2023/09/02 09:30:30;;;;;;;5.10;1.80;;;26.40;99.90;;;;;;5071384;28;20216;-62
2023/09/02 09:32:58;;;;;;;2.17;1.45;;;26.20;99.90;;;;;;5073909;28;20208;-63
2023/09/02 09:35:25;;;;;;;5.95;1.58;;;26.20;99.90;;;;;;5075110;28;20298;-62
2023/09/02 09:37:55;;;;;;;3.92;1.65;;;26.20;99.90;;;;;;5075179;28;20201;-62
2023/09/02 09:40:30;;;;;;;3.10;1.88;;;26.20;99.90;;;;;;5075253;28;20201;-62
2023/09/02 09:42:59;;;;;;;3.13;1.90;;;26.00;99.90;;;;;;5075516;28;20244;-61
2023/09/02 09:45:26;;;;;;;2.40;1.50;;;26.10;99.90;;;;;;5074982;28;20261;-62
2023/09/02 09:47:52;;;;;;;3.33;1.27;;;26.10;99.90;;;;;;5075203;28;20876;-61
2023/09/02 09:50:19;;;;;;;2.25;1.50;;;26.00;99.90;;;;;;5074799;28;20205;-63
2023/09/02 09:52:59;;;;;;;2.40;1.30;;;26.00;99.90;;;;;;5074802;28;20205;-62
2023/09/02 09:55:26;;;;;;;2.58;1.60;;;26.00;99.90;;;;;;5074064;28;20284;-63
2023/09/02 09:57:54;;;;;;;3.13;1.35;;;26.10;99.90;;;;;;5074665;28;20641;-63
2023/09/02 10:00:22;;;;;;;2.63;1.33;;;26.30;99.90;;;;;;5074825;28;20686;-61
2023/09/02 10:02:53;;;;;;;3.15;1.60;;;26.30;99.90;;;;;;5074663;28;20209;-64
2023/09/02 10:05:27;;;;;;;2.03;1.30;;;26.20;99.90;;;;;;5074403;28;20221;-62
2023/09/02 10:08:02;;;;;;;2.78;1.58;;;26.30;99.90;;;;;;5074639;28;20212;-62
2023/09/02 10:10:30;;;;;;;3.05;1.30;;;26.50;99.90;;;;;;5074693;28;20211;-61
2023/09/02 10:12:57;;;;;;;2.58;1.60;;;26.70;99.90;;;;;;5074004;28;20263;-61
2023/09/02 10:15:26;;;;;;;2.17;1.48;;;26.90;99.90;;;;;;5074043;28;20260;-65
2023/09/02 10:17:56;;;;;;;1.90;1.50;;;27.00;99.90;;;;;;5074172;28;20201;-62
2023/09/02 10:20:25;;;;;;;1.40;1.17;;;27.20;99.90;;;;;;5074064;28;20243;-62
2023/09/02 10:22:53;;;;;;;2.20;1.30;;;27.30;99.90;;;;;;5074246;28;20223;-62
2023/09/02 10:25:24;;;;;;;2.70;1.50;;;27.40;99.90;;;;;;5074175;28;20259;-64
2023/09/02 10:28:02;;;;;;;2.05;1.30;;;27.50;99.90;;;;;;5074218;28;20570;-63
2023/09/02 10:30:36;;;;;;;1.42;1.20;;;27.60;99.90;;;;;;5073946;28;20201;-62
2023/09/02 10:33:17;;;;;;;2.05;1.20;;;27.70;99.90;;;;;;5074195;28;20659;-61
2023/09/02 10:35:47;;;;;;;2.63;1.70;;;27.70;99.90;;;;;;5073624;28;20718;-63
2023/09/02 10:38:20;;;;;;;3.60;1.40;;;27.70;99.90;;;;;;5074274;28;20209;-62
2023/09/02 10:40:56;;;;;;;1.33;1.23;;;27.70;99.90;;;;;;5073756;28;20233;-63
2023/09/02 10:43:24;;;;;;;1.90;1.20;;;27.70;99.90;;;;;;5073241;28;20675;-62
2023/09/02 10:45:52;;;;;;;2.15;1.45;;;27.80;99.90;;;;;;5073136;28;20225;-62
2023/09/02 10:48:20;;;;;;;3.38;1.30;;;27.90;99.90;;;;;;5073622;28;20232;-62
2023/09/02 10:50:47;;;;;;;1.50;1.35;;;28.00;99.90;;;;;;5073527;28;20240;-64
2023/09/02 10:53:13;;;;;;;2.33;1.45;;;28.00;99.90;;;;;;5073530;28;20209;-62
2023/09/02 10:55:58;;;;;;;1.63;1.38;;;28.10;99.90;;;;;;5072749;28;20235;-62
2023/09/02 10:58:25;;;;;;;2.08;1.50;;;28.10;99.90;;;;;;5073310;28;20201;-62
2023/09/02 11:00:54;;;;;;;2.30;1.10;;;28.30;99.90;;;;;;5073217;28;20680;-61
2023/09/02 11:03:42;;;;;;;1.90;1.50;;;28.30;99.90;;;;;;5073243;28;20208;-63
2023/09/02 11:06:11;;;;;;;1.35;1.10;;;28.20;99.50;;;;;;5073471;28;20225;-62
2023/09/02 11:08:44;;;;;;;1.13;0.85;;;28.20;98.50;;;;;;5073480;28;20250;-62
2023/09/02 11:11:11;;;;;;;2.28;1.30;;;28.20;97.60;;;;;;5073281;28;20216;-61
2023/09/02 11:14:11;;;;;;;1.20;1.10;;;28.30;97.60;;;;;;5073197;28;20205;-63
2023/09/02 11:16:40;;;;;;;1.70;1.13;;;28.40;97.20;;;;;;5072406;28;20212;-66
2023/09/02 11:19:09;;;;;;;1.85;0.82;;;28.50;96.00;;;;;;5073605;28;20625;-66
2023/09/02 11:21:41;;;;;;;1.92;1.20;;;28.60;95.20;;;;;;5073737;28;20292;-65
2023/09/02 11:24:18;;;;;;;2.22;1.48;;;28.60;94.40;;;;;;5074110;28;20200;-66
2023/09/02 11:26:53;;;;;;;1.45;0.90;;;28.50;95.00;;;;;;5074071;28;20197;-64
2023/09/02 11:29:24;;;;;;;3.65;1.08;;;28.50;93.50;;;;;;5074169;28;20679;-64
2023/09/02 11:32:00;;;;;;;1.40;1.13;;;28.50;93.80;;;;;;5073008;28;20209;-65
2023/09/02 11:34:27;;;;;;;1.88;0.98;;;28.50;95.50;;;;;;5073236;28;20235;-63
2023/09/02 11:36:54;;;;;;;1.55;1.00;;;28.50;95.20;;;;;;5072955;28;20255;-63
2023/09/02 11:39:25;;;;;;;1.30;1.00;;;28.50;95.20;;;;;;5073505;28;20300;-63
2023/09/02 11:42:06;;;;;;;1.63;1.05;;;28.50;94.90;;;;;;5073439;28;20578;-63
2023/09/02 11:44:33;;;;;;;1.38;1.23;;;28.50;94.80;;;;;;5073152;28;20731;-64
2023/09/02 11:47:03;;;;;;;1.52;1.00;;;28.60;94.70;;;;;;5073054;28;20205;-64
2023/09/02 11:49:30;;;;;;;1.63;1.17;;;28.70;94.70;;;;;;5075715;28;20553;-64
2023/09/02 11:51:58;;;;;;;2.13;1.10;;;28.70;95.20;;;;;;5075277;28;20208;-63
2023/09/02 11:54:25;;;;;;;0.82;0.77;;;28.70;95.10;;;;;;5072535;28;20283;-64
2023/09/02 11:56:57;;;;;;;3.53;2.75;;;28.60;94.40;;;;;;5071899;28;20204;-64
2023/09/02 11:59:24;;;;;;;1.95;1.20;;;28.60;94.20;;;;;;5072048;28;20209;-64
2023/09/02 12:02:11;;;;;;;2.05;1.30;;;28.80;94.40;;;;;;5072141;28;20209;-64
2023/09/02 12:04:39;;;;;;;4.57;1.50;;;28.80;94.20;;;;;;5071800;28;20221;-64
2023/09/02 12:07:07;;;;;;;1.80;1.10;;;28.90;94.70;;;;;;5071747;28;20205;-64
2023/09/02 12:09:36;;;;;;;1.10;1.00;;;28.90;94.20;;;;;;5072062;28;20205;-64
2023/09/02 12:12:03;;;;;;;2.72;1.42;;;29.00;94.60;;;;;;5071974;28;20232;-63
2023/09/02 12:14:30;;;;;;;2.15;1.17;;;29.00;94.30;;;;;;5071847;28;20256;-63
2023/09/02 12:16:57;;;;;;;1.10;1.00;;;29.20;94.10;;;;;;5071495;28;20201;-63
2023/09/02 12:19:25;;;;;;;2.70;1.10;;;29.30;93.90;;;;;;5072074;28;20207;-63
2023/09/02 12:21:53;;;;;;;1.30;1.20;;;29.50;93.20;;;;;;5071865;28;20267;-65
2023/09/02 12:24:20;;;;;;;1.20;1.00;;;29.50;92.50;;;;;;5071681;28;20224;-63
2023/09/02 12:26:47;;;;;;;3.35;1.95;;;29.50;92.60;;;;;;5071464;28;20212;-64
2023/09/02 12:29:17;;;;;;;2.53;0.90;;;29.40;92.30;;;;;;5071668;28;20208;-63
2023/09/02 12:31:51;;;;;;;1.20;1.00;;;29.20;92.20;;;;;;5071852;28;20216;-63
2023/09/02 12:34:18;;;;;;;1.42;1.10;;;29.20;93.20;;;;;;5071970;28;20235;-62
2023/09/02 12:36:46;;;;;;;2.25;1.20;;;29.30;93.00;;;;;;5071356;28;20557;-62
2023/09/02 12:39:22;;;;;;;0.93;0.82;;;29.40;92.70;;;;;;5071575;28;20208;-63
2023/09/02 12:41:49;;;;;;;1.77;1.17;;;29.50;92.40;;;;;;5071346;28;20208;-62
2023/09/02 12:44:18;;;;;;;2.28;1.20;;;29.60;92.70;;;;;;5071718;28;20224;-63
2023/09/02 12:46:45;;;;;;;1.05;0.90;;;29.70;92.30;;;;;;5071319;28;20204;-63
2023/09/02 12:49:13;;;;;;;2.88;1.10;;;29.80;92.90;;;;;;5071531;28;20592;-63
2023/09/02 12:51:40;;;;;;;2.03;1.17;;;29.70;92.30;;;;;;5072015;28;20617;-63
2023/09/02 12:54:13;;;;;;;1.95;1.30;;;29.50;92.60;;;;;;5072004;28;20703;-61